Terminal Aerodrome Forecast
Issued by NWS

Home | Current Version | Previous Version | Text Only | Print | Product List | Glossary On
Versions: 1 2 3 4 5 6 7 8 9 10 11 12 13 14 15
603
FTUS41 KCAR 222321
TAFPQI
TAF
KPQI 222321Z 2300/2324 34005KT 5SM -RA BR OVC018
     FM230200 34009KT 2SM -SN OVC008
     FM230300 33011KT P6SM OVC008
     FM230400 33012G20KT 3SM BR OVC010
     FM230500 33013G22KT P6SM BKN035
     FM231700 29008KT P6SM FEW250=

USA.gov is the U.S. government's official web portal to all federal, state and local government web resources and services.